sensor_id;sensor_type;location;lat;lon;timestamp;P1;durP1;ratioP1;P2;durP2;ratioP2
63902;SDS011;50072;50.678;13.938;2023-04-24T00:02:15;22.33;;;10.48;;
63902;SDS011;50072;50.678;13.938;2023-04-24T00:07:17;21.38;;;10.63;;
63902;SDS011;50072;50.678;13.938;2023-04-24T00:09:45;19.10;;;9.10;;
63902;SDS011;50072;50.678;13.938;2023-04-24T00:12:15;19.73;;;8.98;;
63902;SDS011;50072;50.678;13.938;2023-04-24T00:14:45;15.05;;;8.25;;
63902;SDS011;50072;50.678;13.938;2023-04-24T00:19:49;16.88;;;7.07;;
63902;SDS011;50072;50.678;13.938;2023-04-24T00:25:15;11.30;;;6.28;;
63902;SDS011;50072;50.678;13.938;2023-04-24T00:27:47;13.02;;;7.43;;
63902;SDS011;50072;50.678;13.938;2023-04-24T00:30:15;18.75;;;7.25;;
63902;SDS011;50072;50.678;13.938;2023-04-24T00:32:45;9.52;;;6.07;;
63902;SDS011;50072;50.678;13.938;2023-04-24T00:37:47;11.00;;;5.75;;
63902;SDS011;50072;50.678;13.938;2023-04-24T00:40:15;9.98;;;5.35;;
63902;SDS011;50072;50.678;13.938;2023-04-24T00:42:45;10.68;;;5.47;;
63902;SDS011;50072;50.678;13.938;2023-04-24T00:45:15;10.43;;;5.78;;
63902;SDS011;50072;50.678;13.938;2023-04-24T00:47:48;12.43;;;6.68;;
63902;SDS011;50072;50.678;13.938;2023-04-24T00:52:47;11.57;;;6.45;;
63902;SDS011;50072;50.678;13.938;2023-04-24T00:55:15;11.57;;;6.93;;
63902;SDS011;50072;50.678;13.938;2023-04-24T00:57:45;12.13;;;6.70;;
63902;SDS011;50072;50.678;13.938;2023-04-24T01:00:15;9.70;;;6.50;;
63902;SDS011;50072;50.678;13.938;2023-04-24T01:02:43;12.68;;;7.15;;
63902;SDS011;50072;50.678;13.938;2023-04-24T01:05:16;13.65;;;7.18;;
63902;SDS011;50072;50.678;13.938;2023-04-24T01:07:45;13.07;;;7.28;;
63902;SDS011;50072;50.678;13.938;2023-04-24T01:10:15;12.73;;;7.22;;
63902;SDS011;50072;50.678;13.938;2023-04-24T01:12:44;10.98;;;6.30;;
63902;SDS011;50072;50.678;13.938;2023-04-24T01:15:15;15.00;;;6.55;;
63902;SDS011;50072;50.678;13.938;2023-04-24T01:17:47;10.85;;;6.65;;
63902;SDS011;50072;50.678;13.938;2023-04-24T01:20:15;12.63;;;7.10;;
63902;SDS011;50072;50.678;13.938;2023-04-24T01:22:48;13.05;;;7.53;;
63902;SDS011;50072;50.678;13.938;2023-04-24T01:25:15;14.20;;;7.95;;
63902;SDS011;50072;50.678;13.938;2023-04-24T01:27:45;12.18;;;8.13;;
63902;SDS011;50072;50.678;13.938;2023-04-24T01:30:15;15.40;;;7.47;;
63902;SDS011;50072;50.678;13.938;2023-04-24T01:32:41;16.27;;;8.63;;
63902;SDS011;50072;50.678;13.938;2023-04-24T01:35:15;12.73;;;7.97;;
63902;SDS011;50072;50.678;13.938;2023-04-24T01:40:17;15.18;;;7.85;;
63902;SDS011;50072;50.678;13.938;2023-04-24T01:47:41;12.20;;;7.45;;
63902;SDS011;50072;50.678;13.938;2023-04-24T01:50:15;15.77;;;8.95;;
63902;SDS011;50072;50.678;13.938;2023-04-24T01:52:48;16.27;;;8.32;;
63902;SDS011;50072;50.678;13.938;2023-04-24T01:55:15;15.70;;;7.93;;
63902;SDS011;50072;50.678;13.938;2023-04-24T01:57:42;12.43;;;7.32;;
63902;SDS011;50072;50.678;13.938;2023-04-24T02:00:15;10.75;;;6.82;;
63902;SDS011;50072;50.678;13.938;2023-04-24T02:02:47;11.93;;;5.93;;
63902;SDS011;50072;50.678;13.938;2023-04-24T02:05:14;12.23;;;5.93;;
63902;SDS011;50072;50.678;13.938;2023-04-24T02:07:45;10.15;;;5.82;;
63902;SDS011;50072;50.678;13.938;2023-04-24T02:10:16;11.45;;;5.85;;
63902;SDS011;50072;50.678;13.938;2023-04-24T02:12:45;13.38;;;6.20;;
63902;SDS011;50072;50.678;13.938;2023-04-24T02:17:45;14.88;;;6.95;;
63902;SDS011;50072;50.678;13.938;2023-04-24T02:20:15;13.77;;;6.90;;
63902;SDS011;50072;50.678;13.938;2023-04-24T02:22:45;12.90;;;6.82;;
63902;SDS011;50072;50.678;13.938;2023-04-24T02:25:16;15.43;;;7.90;;
63902;SDS011;50072;50.678;13.938;2023-04-24T02:27:45;13.23;;;7.13;;
63902;SDS011;50072;50.678;13.938;2023-04-24T02:30:17;18.05;;;7.82;;
63902;SDS011;50072;50.678;13.938;2023-04-24T02:32:45;15.55;;;8.38;;
63902;SDS011;50072;50.678;13.938;2023-04-24T02:35:17;13.25;;;7.68;;
63902;SDS011;50072;50.678;13.938;2023-04-24T02:37:45;15.10;;;8.32;;
63902;SDS011;50072;50.678;13.938;2023-04-24T02:40:12;14.43;;;7.78;;
63902;SDS011;50072;50.678;13.938;2023-04-24T02:42:45;16.27;;;8.43;;
63902;SDS011;50072;50.678;13.938;2023-04-24T02:45:15;17.33;;;9.07;;
63902;SDS011;50072;50.678;13.938;2023-04-24T02:47:47;20.65;;;9.68;;
63902;SDS011;50072;50.678;13.938;2023-04-24T02:57:45;15.73;;;8.40;;
63902;SDS011;50072;50.678;13.938;2023-04-24T03:00:18;18.23;;;8.63;;
63902;SDS011;50072;50.678;13.938;2023-04-24T03:02:45;18.67;;;8.18;;
63902;SDS011;50072;50.678;13.938;2023-04-24T03:07:45;18.67;;;8.45;;
63902;SDS011;50072;50.678;13.938;2023-04-24T03:10:11;12.20;;;7.90;;
63902;SDS011;50072;50.678;13.938;2023-04-24T03:12:38;13.32;;;8.10;;
63902;SDS011;50072;50.678;13.938;2023-04-24T03:15:15;15.55;;;7.88;;
63902;SDS011;50072;50.678;13.938;2023-04-24T03:17:48;17.00;;;7.82;;
63902;SDS011;50072;50.678;13.938;2023-04-24T03:20:15;18.30;;;8.13;;
63902;SDS011;50072;50.678;13.938;2023-04-24T03:22:45;18.00;;;8.15;;
63902;SDS011;50072;50.678;13.938;2023-04-24T03:25:12;13.07;;;7.65;;
63902;SDS011;50072;50.678;13.938;2023-04-24T03:27:45;16.15;;;8.35;;
63902;SDS011;50072;50.678;13.938;2023-04-24T03:32:45;13.73;;;7.65;;
63902;SDS011;50072;50.678;13.938;2023-04-24T03:35:15;14.88;;;8.23;;
63902;SDS011;50072;50.678;13.938;2023-04-24T03:37:47;17.88;;;8.30;;
63902;SDS011;50072;50.678;13.938;2023-04-24T03:40:15;18.25;;;8.45;;
63902;SDS011;50072;50.678;13.938;2023-04-24T03:45:12;15.73;;;9.38;;
63902;SDS011;50072;50.678;13.938;2023-04-24T03:47:45;18.98;;;9.40;;
63902;SDS011;50072;50.678;13.938;2023-04-24T03:52:45;19.08;;;9.88;;
63902;SDS011;50072;50.678;13.938;2023-04-24T03:55:16;22.50;;;8.93;;
63902;SDS011;50072;50.678;13.938;2023-04-24T03:57:45;18.73;;;9.73;;
63902;SDS011;50072;50.678;13.938;2023-04-24T04:00:11;20.60;;;9.48;;
63902;SDS011;50072;50.678;13.938;2023-04-24T04:02:37;20.75;;;10.35;;
63902;SDS011;50072;50.678;13.938;2023-04-24T04:05:03;22.38;;;10.55;;
63902;SDS011;50072;50.678;13.938;2023-04-24T04:07:29;21.80;;;11.98;;
63902;SDS011;50072;50.678;13.938;2023-04-24T04:09:55;18.48;;;10.52;;
63902;SDS011;50072;50.678;13.938;2023-04-24T04:12:21;26.48;;;11.20;;
63902;SDS011;50072;50.678;13.938;2023-04-24T04:14:47;21.63;;;11.07;;
63902;SDS011;50072;50.678;13.938;2023-04-24T04:17:13;19.67;;;10.02;;
63902;SDS011;50072;50.678;13.938;2023-04-24T04:19:38;21.27;;;10.88;;
63902;SDS011;50072;50.678;13.938;2023-04-24T04:22:04;26.92;;;10.18;;
63902;SDS011;50072;50.678;13.938;2023-04-24T04:24:30;18.95;;;10.10;;
63902;SDS011;50072;50.678;13.938;2023-04-24T04:26:56;21.63;;;10.25;;
63902;SDS011;50072;50.678;13.938;2023-04-24T04:29:23;19.23;;;10.38;;
63902;SDS011;50072;50.678;13.938;2023-04-24T04:31:49;24.52;;;11.35;;
63902;SDS011;50072;50.678;13.938;2023-04-24T04:34:15;19.52;;;10.88;;
63902;SDS011;50072;50.678;13.938;2023-04-24T04:36:47;24.65;;;11.35;;
63902;SDS011;50072;50.678;13.938;2023-04-24T04:39:13;23.63;;;11.43;;
63902;SDS011;50072;50.678;13.938;2023-04-24T04:41:40;21.83;;;11.43;;
63902;SDS011;50072;50.678;13.938;2023-04-24T04:44:07;19.88;;;9.90;;
63902;SDS011;50072;50.678;13.938;2023-04-24T04:46:34;21.40;;;11.30;;
63902;SDS011;50072;50.678;13.938;2023-04-24T04:49:04;17.83;;;9.85;;
63902;SDS011;50072;50.678;13.938;2023-04-24T04:51:30;21.55;;;11.32;;
63902;SDS011;50072;50.678;13.938;2023-04-24T04:53:56;20.70;;;11.32;;
63902;SDS011;50072;50.678;13.938;2023-04-24T04:56:23;25.30;;;11.63;;
63902;SDS011;50072;50.678;13.938;2023-04-24T04:58:49;22.10;;;11.43;;
63902;SDS011;50072;50.678;13.938;2023-04-24T05:01:15;25.98;;;11.02;;
63902;SDS011;50072;50.678;13.938;2023-04-24T05:03:41;26.50;;;11.73;;
63902;SDS011;50072;50.678;13.938;2023-04-24T05:06:08;21.58;;;11.60;;
63902;SDS011;50072;50.678;13.938;2023-04-24T05:08:36;27.10;;;13.18;;
63902;SDS011;50072;50.678;13.938;2023-04-24T05:11:03;29.25;;;13.18;;
63902;SDS011;50072;50.678;13.938;2023-04-24T05:13:29;56.38;;;18.50;;
63902;SDS011;50072;50.678;13.938;2023-04-24T05:15:56;56.40;;;18.67;;
63902;SDS011;50072;50.678;13.938;2023-04-24T05:18:24;46.42;;;18.80;;
63902;SDS011;50072;50.678;13.938;2023-04-24T05:20:51;30.80;;;13.38;;
63902;SDS011;50072;50.678;13.938;2023-04-24T05:23:17;32.15;;;13.35;;
63902;SDS011;50072;50.678;13.938;2023-04-24T05:25:43;37.53;;;13.82;;
63902;SDS011;50072;50.678;13.938;2023-04-24T05:28:09;36.00;;;14.48;;
63902;SDS011;50072;50.678;13.938;2023-04-24T05:30:36;31.70;;;14.30;;
63902;SDS011;50072;50.678;13.938;2023-04-24T05:33:02;26.95;;;13.65;;
63902;SDS011;50072;50.678;13.938;2023-04-24T05:35:29;28.90;;;13.60;;
63902;SDS011;50072;50.678;13.938;2023-04-24T05:37:55;29.45;;;14.05;;
63902;SDS011;50072;50.678;13.938;2023-04-24T05:40:21;25.20;;;13.77;;
63902;SDS011;50072;50.678;13.938;2023-04-24T05:42:47;32.47;;;13.13;;
63902;SDS011;50072;50.678;13.938;2023-04-24T05:45:14;31.33;;;13.38;;
63902;SDS011;50072;50.678;13.938;2023-04-24T05:47:44;29.48;;;13.50;;
63902;SDS011;50072;50.678;13.938;2023-04-24T05:50:11;29.73;;;12.82;;
63902;SDS011;50072;50.678;13.938;2023-04-24T05:52:38;31.83;;;13.05;;
63902;SDS011;50072;50.678;13.938;2023-04-24T05:55:04;23.65;;;11.82;;
63902;SDS011;50072;50.678;13.938;2023-04-24T05:57:31;20.92;;;10.57;;
63902;SDS011;50072;50.678;13.938;2023-04-24T05:59:57;23.20;;;10.90;;
63902;SDS011;50072;50.678;13.938;2023-04-24T06:02:23;18.88;;;10.85;;
63902;SDS011;50072;50.678;13.938;2023-04-24T06:05:03;22.05;;;10.52;;
63902;SDS011;50072;50.678;13.938;2023-04-24T06:10:17;20.63;;;11.98;;
63902;SDS011;50072;50.678;13.938;2023-04-24T06:12:44;23.38;;;11.80;;
63902;SDS011;50072;50.678;13.938;2023-04-24T06:15:18;18.23;;;11.18;;
63902;SDS011;50072;50.678;13.938;2023-04-24T06:20:17;21.08;;;11.25;;
63902;SDS011;50072;50.678;13.938;2023-04-24T06:22:43;19.13;;;11.73;;
63902;SDS011;50072;50.678;13.938;2023-04-24T06:25:15;20.60;;;11.30;;
63902;SDS011;50072;50.678;13.938;2023-04-24T06:30:17;20.20;;;9.77;;
63902;SDS011;50072;50.678;13.938;2023-04-24T06:32:43;19.95;;;10.45;;
63902;SDS011;50072;50.678;13.938;2023-04-24T06:35:11;13.23;;;7.78;;
63902;SDS011;50072;50.678;13.938;2023-04-24T06:37:45;13.85;;;8.02;;
63902;SDS011;50072;50.678;13.938;2023-04-24T06:40:17;16.20;;;8.57;;
63902;SDS011;50072;50.678;13.938;2023-04-24T06:42:44;12.48;;;6.82;;
63902;SDS011;50072;50.678;13.938;2023-04-24T06:45:16;10.77;;;5.47;;
63902;SDS011;50072;50.678;13.938;2023-04-24T06:47:42;13.98;;;6.88;;
63902;SDS011;50072;50.678;13.938;2023-04-24T06:50:15;12.45;;;6.90;;
63902;SDS011;50072;50.678;13.938;2023-04-24T06:52:41;13.23;;;7.40;;
63902;SDS011;50072;50.678;13.938;2023-04-24T06:55:15;15.13;;;7.82;;
63902;SDS011;50072;50.678;13.938;2023-04-24T06:57:47;17.17;;;7.88;;
63902;SDS011;50072;50.678;13.938;2023-04-24T07:00:15;18.67;;;9.02;;
63902;SDS011;50072;50.678;13.938;2023-04-24T07:02:41;17.73;;;9.40;;
63902;SDS011;50072;50.678;13.938;2023-04-24T07:05:15;12.45;;;7.38;;
63902;SDS011;50072;50.678;13.938;2023-04-24T07:07:46;13.98;;;8.00;;
63902;SDS011;50072;50.678;13.938;2023-04-24T07:10:16;13.45;;;7.97;;
63902;SDS011;50072;50.678;13.938;2023-04-24T07:12:47;17.13;;;8.13;;
63902;SDS011;50072;50.678;13.938;2023-04-24T07:15:15;18.45;;;8.52;;
63902;SDS011;50072;50.678;13.938;2023-04-24T07:20:18;18.25;;;8.63;;
63902;SDS011;50072;50.678;13.938;2023-04-24T07:22:45;15.43;;;8.75;;
63902;SDS011;50072;50.678;13.938;2023-04-24T07:25:15;15.30;;;8.07;;
63902;SDS011;50072;50.678;13.938;2023-04-24T07:27:46;15.15;;;8.18;;
63902;SDS011;50072;50.678;13.938;2023-04-24T07:30:15;16.48;;;8.52;;
63902;SDS011;50072;50.678;13.938;2023-04-24T07:32:45;14.60;;;8.05;;
63902;SDS011;50072;50.678;13.938;2023-04-24T07:35:18;16.27;;;8.40;;
63902;SDS011;50072;50.678;13.938;2023-04-24T07:37:45;15.68;;;8.38;;
63902;SDS011;50072;50.678;13.938;2023-04-24T07:40:15;15.32;;;7.07;;
63902;SDS011;50072;50.678;13.938;2023-04-24T07:42:47;11.82;;;7.50;;
63902;SDS011;50072;50.678;13.938;2023-04-24T07:45:17;18.17;;;7.38;;
63902;SDS011;50072;50.678;13.938;2023-04-24T07:47:45;15.00;;;7.63;;
63902;SDS011;50072;50.678;13.938;2023-04-24T07:50:15;14.00;;;7.32;;
63902;SDS011;50072;50.678;13.938;2023-04-24T07:52:47;16.98;;;7.32;;
63902;SDS011;50072;50.678;13.938;2023-04-24T07:55:15;17.45;;;7.57;;
63902;SDS011;50072;50.678;13.938;2023-04-24T07:57:45;14.95;;;7.53;;
63902;SDS011;50072;50.678;13.938;2023-04-24T08:00:11;13.70;;;7.38;;
63902;SDS011;50072;50.678;13.938;2023-04-24T08:02:39;14.90;;;6.97;;
63902;SDS011;50072;50.678;13.938;2023-04-24T08:05:07;13.45;;;7.10;;
63902;SDS011;50072;50.678;13.938;2023-04-24T08:10:15;12.05;;;6.78;;
63902;SDS011;50072;50.678;13.938;2023-04-24T08:12:41;13.30;;;7.00;;
63902;SDS011;50072;50.678;13.938;2023-04-24T08:15:07;10.25;;;6.25;;
63902;SDS011;50072;50.678;13.938;2023-04-24T08:17:34;15.05;;;7.13;;
63902;SDS011;50072;50.678;13.938;2023-04-24T08:20:01;14.60;;;6.80;;
63902;SDS011;50072;50.678;13.938;2023-04-24T08:22:31;14.60;;;7.05;;
63902;SDS011;50072;50.678;13.938;2023-04-24T08:24:58;11.25;;;7.05;;
63902;SDS011;50072;50.678;13.938;2023-04-24T08:27:25;10.30;;;5.85;;
63902;SDS011;50072;50.678;13.938;2023-04-24T08:29:52;10.82;;;5.78;;
63902;SDS011;50072;50.678;13.938;2023-04-24T08:32:19;10.93;;;6.38;;
63902;SDS011;50072;50.678;13.938;2023-04-24T08:34:45;13.68;;;6.78;;
63902;SDS011;50072;50.678;13.938;2023-04-24T08:37:11;12.18;;;6.85;;
63902;SDS011;50072;50.678;13.938;2023-04-24T08:39:37;11.90;;;6.60;;
63902;SDS011;50072;50.678;13.938;2023-04-24T08:42:04;11.38;;;6.05;;
63902;SDS011;50072;50.678;13.938;2023-04-24T08:44:32;11.02;;;6.35;;
63902;SDS011;50072;50.678;13.938;2023-04-24T08:46:57;11.85;;;6.68;;
63902;SDS011;50072;50.678;13.938;2023-04-24T08:49:24;14.02;;;6.55;;
63902;SDS011;50072;50.678;13.938;2023-04-24T08:51:52;12.45;;;7.45;;
63902;SDS011;50072;50.678;13.938;2023-04-24T08:54:18;10.85;;;6.35;;
63902;SDS011;50072;50.678;13.938;2023-04-24T08:56:44;11.75;;;6.13;;
63902;SDS011;50072;50.678;13.938;2023-04-24T08:59:12;9.25;;;5.18;;
63902;SDS011;50072;50.678;13.938;2023-04-24T09:01:39;8.23;;;5.38;;
63902;SDS011;50072;50.678;13.938;2023-04-24T09:04:07;7.43;;;5.28;;
63902;SDS011;50072;50.678;13.938;2023-04-24T09:06:37;9.00;;;5.68;;
63902;SDS011;50072;50.678;13.938;2023-04-24T09:09:04;9.20;;;6.28;;
63902;SDS011;50072;50.678;13.938;2023-04-24T09:11:31;9.52;;;6.60;;
63902;SDS011;50072;50.678;13.938;2023-04-24T09:14:00;9.98;;;6.78;;
63902;SDS011;50072;50.678;13.938;2023-04-24T09:16:26;12.07;;;7.47;;
63902;SDS011;50072;50.678;13.938;2023-04-24T09:18:53;12.05;;;6.40;;
63902;SDS011;50072;50.678;13.938;2023-04-24T09:21:22;9.23;;;6.22;;
63902;SDS011;50072;50.678;13.938;2023-04-24T09:24:14;8.82;;;6.28;;
63902;SDS011;50072;50.678;13.938;2023-04-24T09:26:42;11.50;;;6.97;;
63902;SDS011;50072;50.678;13.938;2023-04-24T09:29:13;13.90;;;7.55;;
63902;SDS011;50072;50.678;13.938;2023-04-24T09:31:41;11.88;;;6.60;;
63902;SDS011;50072;50.678;13.938;2023-04-24T09:34:07;14.82;;;8.05;;
63902;SDS011;50072;50.678;13.938;2023-04-24T09:36:37;13.75;;;8.77;;
63902;SDS011;50072;50.678;13.938;2023-04-24T09:39:05;13.63;;;8.18;;
63902;SDS011;50072;50.678;13.938;2023-04-24T09:41:33;14.77;;;8.63;;
63902;SDS011;50072;50.678;13.938;2023-04-24T09:44:12;12.68;;;7.60;;
63902;SDS011;50072;50.678;13.938;2023-04-24T09:46:40;12.68;;;7.32;;
63902;SDS011;50072;50.678;13.938;2023-04-24T09:49:08;13.27;;;7.43;;
63902;SDS011;50072;50.678;13.938;2023-04-24T09:51:36;11.45;;;6.75;;
63902;SDS011;50072;50.678;13.938;2023-04-24T09:54:20;10.98;;;6.55;;
63902;SDS011;50072;50.678;13.938;2023-04-24T09:56:50;10.25;;;6.22;;
63902;SDS011;50072;50.678;13.938;2023-04-24T09:59:17;7.45;;;5.28;;
63902;SDS011;50072;50.678;13.938;2023-04-24T10:01:44;8.20;;;4.53;;
63902;SDS011;50072;50.678;13.938;2023-04-24T10:06:43;15.18;;;9.63;;
63902;SDS011;50072;50.678;13.938;2023-04-24T10:09:10;12.82;;;6.75;;
63902;SDS011;50072;50.678;13.938;2023-04-24T10:11:45;16.27;;;11.25;;
63902;SDS011;50072;50.678;13.938;2023-04-24T10:14:13;16.92;;;10.73;;
63902;SDS011;50072;50.678;13.938;2023-04-24T10:16:41;8.05;;;5.72;;
63902;SDS011;50072;50.678;13.938;2023-04-24T10:19:08;5.85;;;4.15;;
63902;SDS011;50072;50.678;13.938;2023-04-24T10:21:35;7.00;;;5.18;;
63902;SDS011;50072;50.678;13.938;2023-04-24T10:24:04;7.15;;;4.57;;
63902;SDS011;50072;50.678;13.938;2023-04-24T10:26:32;6.25;;;4.60;;
63902;SDS011;50072;50.678;13.938;2023-04-24T10:28:59;7.45;;;4.70;;
63902;SDS011;50072;50.678;13.938;2023-04-24T10:31:26;7.30;;;4.80;;
63902;SDS011;50072;50.678;13.938;2023-04-24T10:33:56;8.25;;;5.55;;
63902;SDS011;50072;50.678;13.938;2023-04-24T10:36:23;6.07;;;4.50;;
63902;SDS011;50072;50.678;13.938;2023-04-24T10:38:52;7.57;;;5.13;;
63902;SDS011;50072;50.678;13.938;2023-04-24T10:41:20;6.00;;;4.40;;
63902;SDS011;50072;50.678;13.938;2023-04-24T10:44:03;8.77;;;5.10;;
63902;SDS011;50072;50.678;13.938;2023-04-24T10:46:42;6.65;;;4.45;;
63902;SDS011;50072;50.678;13.938;2023-04-24T10:49:10;5.53;;;3.85;;
63902;SDS011;50072;50.678;13.938;2023-04-24T10:51:59;6.97;;;4.78;;
63902;SDS011;50072;50.678;13.938;2023-04-24T10:54:27;6.68;;;4.90;;
63902;SDS011;50072;50.678;13.938;2023-04-24T10:57:25;6.43;;;3.90;;
63902;SDS011;50072;50.678;13.938;2023-04-24T10:59:49;5.93;;;3.58;;
63902;SDS011;50072;50.678;13.938;2023-04-24T11:02:17;5.57;;;3.67;;
63902;SDS011;50072;50.678;13.938;2023-04-24T11:04:44;5.85;;;3.28;;
63902;SDS011;50072;50.678;13.938;2023-04-24T11:07:10;6.28;;;4.10;;
63902;SDS011;50072;50.678;13.938;2023-04-24T11:09:37;4.15;;;3.25;;
63902;SDS011;50072;50.678;13.938;2023-04-24T11:12:06;5.00;;;3.50;;
63902;SDS011;50072;50.678;13.938;2023-04-24T11:17:32;6.13;;;3.80;;
63902;SDS011;50072;50.678;13.938;2023-04-24T11:20:07;5.82;;;3.25;;
63902;SDS011;50072;50.678;13.938;2023-04-24T11:22:35;5.68;;;3.40;;
63902;SDS011;50072;50.678;13.938;2023-04-24T11:25:03;5.22;;;2.97;;
63902;SDS011;50072;50.678;13.938;2023-04-24T11:27:30;6.82;;;3.40;;
63902;SDS011;50072;50.678;13.938;2023-04-24T11:29:59;5.57;;;3.30;;
63902;SDS011;50072;50.678;13.938;2023-04-24T11:35:02;6.75;;;4.78;;
63902;SDS011;50072;50.678;13.938;2023-04-24T11:37:33;5.60;;;4.00;;
63902;SDS011;50072;50.678;13.938;2023-04-24T11:39:59;6.88;;;3.90;;
63902;SDS011;50072;50.678;13.938;2023-04-24T11:42:25;5.60;;;3.10;;
63902;SDS011;50072;50.678;13.938;2023-04-24T11:44:52;4.22;;;3.10;;
63902;SDS011;50072;50.678;13.938;2023-04-24T11:47:30;6.25;;;3.35;;
63902;SDS011;50072;50.678;13.938;2023-04-24T11:49:59;5.63;;;3.10;;
63902;SDS011;50072;50.678;13.938;2023-04-24T11:52:25;5.10;;;2.50;;
63902;SDS011;50072;50.678;13.938;2023-04-24T11:54:52;4.70;;;2.60;;
63902;SDS011;50072;50.678;13.938;2023-04-24T11:57:21;4.47;;;2.85;;
63902;SDS011;50072;50.678;13.938;2023-04-24T11:59:49;4.05;;;2.63;;
63902;SDS011;50072;50.678;13.938;2023-04-24T12:02:25;4.18;;;2.40;;
63902;SDS011;50072;50.678;13.938;2023-04-24T12:04:53;4.57;;;2.42;;
63902;SDS011;50072;50.678;13.938;2023-04-24T12:07:19;8.15;;;4.00;;
63902;SDS011;50072;50.678;13.938;2023-04-24T12:09:49;8.20;;;4.90;;
63902;SDS011;50072;50.678;13.938;2023-04-24T12:12:20;3.83;;;2.17;;
63902;SDS011;50072;50.678;13.938;2023-04-24T12:14:51;6.75;;;3.67;;
63902;SDS011;50072;50.678;13.938;2023-04-24T12:17:23;3.40;;;2.00;;
63902;SDS011;50072;50.678;13.938;2023-04-24T12:20:02;3.08;;;1.80;;
63902;SDS011;50072;50.678;13.938;2023-04-24T12:25:14;3.47;;;1.70;;
63902;SDS011;50072;50.678;13.938;2023-04-24T12:27:41;4.00;;;1.63;;
63902;SDS011;50072;50.678;13.938;2023-04-24T12:30:15;5.30;;;1.88;;
63902;SDS011;50072;50.678;13.938;2023-04-24T12:32:45;6.47;;;1.80;;
63902;SDS011;50072;50.678;13.938;2023-04-24T12:35:22;5.63;;;2.72;;
63902;SDS011;50072;50.678;13.938;2023-04-24T12:37:49;5.50;;;2.17;;
63902;SDS011;50072;50.678;13.938;2023-04-24T12:40:16;7.40;;;2.65;;
63902;SDS011;50072;50.678;13.938;2023-04-24T12:42:48;4.05;;;2.00;;
63902;SDS011;50072;50.678;13.938;2023-04-24T12:45:18;2.97;;;1.90;;
63902;SDS011;50072;50.678;13.938;2023-04-24T12:47:45;3.55;;;1.80;;
63902;SDS011;50072;50.678;13.938;2023-04-24T12:50:12;4.00;;;1.65;;
63902;SDS011;50072;50.678;13.938;2023-04-24T12:52:39;7.22;;;1.60;;
63902;SDS011;50072;50.678;13.938;2023-04-24T12:55:06;3.80;;;1.50;;
63902;SDS011;50072;50.678;13.938;2023-04-24T12:57:37;4.40;;;1.23;;
63902;SDS011;50072;50.678;13.938;2023-04-24T13:00:05;4.75;;;2.05;;
63902;SDS011;50072;50.678;13.938;2023-04-24T13:02:32;7.35;;;2.58;;
63902;SDS011;50072;50.678;13.938;2023-04-24T13:04:59;5.63;;;2.10;;
63902;SDS011;50072;50.678;13.938;2023-04-24T13:07:27;5.50;;;3.30;;
63902;SDS011;50072;50.678;13.938;2023-04-24T13:09:53;4.40;;;0.90;;
63902;SDS011;50072;50.678;13.938;2023-04-24T13:12:20;11.23;;;4.00;;
63902;SDS011;50072;50.678;13.938;2023-04-24T13:14:46;6.43;;;1.20;;
63902;SDS011;50072;50.678;13.938;2023-04-24T13:17:12;4.15;;;1.10;;
63902;SDS011;50072;50.678;13.938;2023-04-24T13:19:41;6.18;;;1.73;;
63902;SDS011;50072;50.678;13.938;2023-04-24T13:22:09;9.63;;;4.07;;
63902;SDS011;50072;50.678;13.938;2023-04-24T13:24:37;4.68;;;1.80;;
63902;SDS011;50072;50.678;13.938;2023-04-24T13:27:05;11.35;;;6.45;;
63902;SDS011;50072;50.678;13.938;2023-04-24T13:29:31;6.25;;;3.28;;
63902;SDS011;50072;50.678;13.938;2023-04-24T13:31:56;3.78;;;2.00;;
63902;SDS011;50072;50.678;13.938;2023-04-24T13:34:25;7.57;;;4.50;;
63902;SDS011;50072;50.678;13.938;2023-04-24T13:36:52;8.05;;;3.15;;
63902;SDS011;50072;50.678;13.938;2023-04-24T13:39:20;6.88;;;3.65;;
63902;SDS011;50072;50.678;13.938;2023-04-24T13:41:46;6.72;;;3.55;;
63902;SDS011;50072;50.678;13.938;2023-04-24T13:44:14;14.88;;;7.28;;
63902;SDS011;50072;50.678;13.938;2023-04-24T13:46:41;3.35;;;1.98;;
63902;SDS011;50072;50.678;13.938;2023-04-24T13:49:09;2.13;;;1.00;;
63902;SDS011;50072;50.678;13.938;2023-04-24T13:51:36;6.68;;;1.08;;
63902;SDS011;50072;50.678;13.938;2023-04-24T13:54:02;3.17;;;1.00;;
63902;SDS011;50072;50.678;13.938;2023-04-24T13:56:28;1.88;;;0.73;;
63902;SDS011;50072;50.678;13.938;2023-04-24T13:58:54;2.22;;;0.90;;
63902;SDS011;50072;50.678;13.938;2023-04-24T14:01:20;2.72;;;1.00;;
63902;SDS011;50072;50.678;13.938;2023-04-24T14:03:50;2.55;;;1.33;;
63902;SDS011;50072;50.678;13.938;2023-04-24T14:06:17;3.38;;;1.30;;
63902;SDS011;50072;50.678;13.938;2023-04-24T14:08:44;2.40;;;1.52;;
63902;SDS011;50072;50.678;13.938;2023-04-24T14:11:10;3.20;;;1.27;;
63902;SDS011;50072;50.678;13.938;2023-04-24T14:13:36;2.08;;;0.90;;
63902;SDS011;50072;50.678;13.938;2023-04-24T14:16:03;1.38;;;0.80;;
63902;SDS011;50072;50.678;13.938;2023-04-24T14:18:29;1.63;;;1.00;;
63902;SDS011;50072;50.678;13.938;2023-04-24T14:20:55;2.13;;;0.90;;
63902;SDS011;50072;50.678;13.938;2023-04-24T14:23:21;1.95;;;0.88;;
63902;SDS011;50072;50.678;13.938;2023-04-24T14:25:47;1.40;;;0.90;;
63902;SDS011;50072;50.678;13.938;2023-04-24T14:28:16;2.33;;;1.02;;
63902;SDS011;50072;50.678;13.938;2023-04-24T14:30:43;1.15;;;0.90;;
63902;SDS011;50072;50.678;13.938;2023-04-24T14:33:09;3.28;;;1.80;;
63902;SDS011;50072;50.678;13.938;2023-04-24T14:35:35;2.10;;;0.93;;
63902;SDS011;50072;50.678;13.938;2023-04-24T14:38:01;2.35;;;1.40;;
63902;SDS011;50072;50.678;13.938;2023-04-24T14:40:27;1.20;;;0.80;;
63902;SDS011;50072;50.678;13.938;2023-04-24T14:42:53;4.07;;;1.70;;
63902;SDS011;50072;50.678;13.938;2023-04-24T14:45:19;1.65;;;0.93;;
63902;SDS011;50072;50.678;13.938;2023-04-24T14:47:45;2.38;;;0.80;;
63902;SDS011;50072;50.678;13.938;2023-04-24T14:50:11;4.13;;;0.98;;
63902;SDS011;50072;50.678;13.938;2023-04-24T14:52:38;1.23;;;0.70;;
63902;SDS011;50072;50.678;13.938;2023-04-24T14:55:04;1.67;;;1.00;;
63902;SDS011;50072;50.678;13.938;2023-04-24T14:57:32;3.25;;;1.00;;
63902;SDS011;50072;50.678;13.938;2023-04-24T14:59:59;1.50;;;0.90;;
63902;SDS011;50072;50.678;13.938;2023-04-24T15:02:25;1.80;;;0.98;;
63902;SDS011;50072;50.678;13.938;2023-04-24T15:04:51;1.73;;;0.80;;
63902;SDS011;50072;50.678;13.938;2023-04-24T15:07:17;2.78;;;0.60;;
63902;SDS011;50072;50.678;13.938;2023-04-24T15:09:43;1.60;;;0.82;;
63902;SDS011;50072;50.678;13.938;2023-04-24T15:12:09;1.95;;;0.85;;
63902;SDS011;50072;50.678;13.938;2023-04-24T15:14:35;1.63;;;0.80;;
63902;SDS011;50072;50.678;13.938;2023-04-24T15:17:01;1.73;;;0.80;;
63902;SDS011;50072;50.678;13.938;2023-04-24T15:19:26;1.73;;;0.90;;
63902;SDS011;50072;50.678;13.938;2023-04-24T15:21:52;1.73;;;0.80;;
63902;SDS011;50072;50.678;13.938;2023-04-24T15:24:18;4.93;;;1.75;;
63902;SDS011;50072;50.678;13.938;2023-04-24T15:26:44;7.93;;;3.78;;
63902;SDS011;50072;50.678;13.938;2023-04-24T15:29:15;7.03;;;2.38;;
63902;SDS011;50072;50.678;13.938;2023-04-24T15:31:48;11.50;;;3.45;;
63902;SDS011;50072;50.678;13.938;2023-04-24T15:34:15;11.90;;;3.88;;
63902;SDS011;50072;50.678;13.938;2023-04-24T15:39:17;11.45;;;4.60;;